createdAt,value
2019-01-04T00:01:20.119Z,3.17
2019-01-04T00:03:49.111Z,6.73
2019-01-04T00:06:17.999Z,3.43
2019-01-04T00:08:46.766Z,4.50
2019-01-04T00:11:15.809Z,4.63
2019-01-04T00:13:44.675Z,6.00
2019-01-04T00:16:13.518Z,5.47
2019-01-04T00:18:42.224Z,6.87
2019-01-04T00:21:11.134Z,6.77
2019-01-04T00:23:39.789Z,8.10
2019-01-04T00:26:08.553Z,6.37
2019-01-04T00:28:37.238Z,7.23
2019-01-04T00:31:05.934Z,2.80
2019-01-04T00:33:34.795Z,10.83
2019-01-04T00:36:03.532Z,10.40
2019-01-04T00:38:32.398Z,3.83
2019-01-04T00:41:01.192Z,6.47
2019-01-04T00:43:29.859Z,4.97
2019-01-04T00:45:58.529Z,6.27
2019-01-04T00:48:27.818Z,3.70
2019-01-04T00:50:56.579Z,4.33
2019-01-04T00:53:25.546Z,3.93
2019-01-04T00:56:28.575Z,5.05
2019-01-04T00:59:33.027Z,4.43
2019-01-04T01:02:43.215Z,5.00
2019-01-04T01:05:43.915Z,7.07
2019-01-04T01:08:45.166Z,4.93
2019-01-04T01:11:52.986Z,5.80
2019-01-04T01:14:57.459Z,6.63
2019-01-04T01:18:02.902Z,3.17
2019-01-04T01:21:07.274Z,8.17
2019-01-04T01:24:11.914Z,6.77
2019-01-04T01:27:24.094Z,4.85
2019-01-04T01:30:30.022Z,8.23
2019-01-04T01:33:41.722Z,11.17
2019-01-04T01:36:38.925Z,5.92
2019-01-04T01:39:49.926Z,6.57
2019-01-04T01:42:46.358Z,9.57
2019-01-04T01:45:43.610Z,7.67
2019-01-04T01:48:34.176Z,14.90
2019-01-04T01:51:26.318Z,5.20
2019-01-04T01:53:55.434Z,12.68
2019-01-04T01:56:24.342Z,7.73
2019-01-04T01:58:53.119Z,9.67
2019-01-04T02:01:21.818Z,7.90
2019-01-04T02:03:50.576Z,7.57
2019-01-04T02:06:22.176Z,11.00
2019-01-04T02:08:51.077Z,4.30
2019-01-04T02:11:19.983Z,6.50
2019-01-04T02:13:48.950Z,5.00
2019-01-04T02:16:17.610Z,12.43
2019-01-04T02:18:47.311Z,8.40
2019-01-04T02:21:16.224Z,4.97
2019-01-04T02:23:45.140Z,5.33
2019-01-04T02:26:13.850Z,8.83
2019-01-04T02:28:42.653Z,7.50
2019-01-04T02:31:11.438Z,5.83
2019-01-04T02:33:40.602Z,6.03
2019-01-04T02:36:09.602Z,9.10
2019-01-04T02:38:38.294Z,5.00
2019-01-04T02:41:06.997Z,8.07
2019-01-04T02:43:36.012Z,8.00
2019-01-04T02:46:04.766Z,11.03
2019-01-04T02:48:33.734Z,4.73
2019-01-04T02:51:02.958Z,8.27
2019-01-04T02:53:31.866Z,6.97
2019-01-04T02:56:01.150Z,7.00
2019-01-04T02:58:30.276Z,9.47
2019-01-04T03:00:59.436Z,11.13
2019-01-04T03:03:28.331Z,13.20
2019-01-04T03:05:57.154Z,10.80
2019-01-04T03:08:25.883Z,8.23
2019-01-04T03:10:54.713Z,16.97
2019-01-04T03:13:23.462Z,6.73
2019-01-04T03:15:52.366Z,8.67
2019-01-04T03:18:21.026Z,11.23
2019-01-04T03:20:50.082Z,10.47
2019-01-04T03:23:18.762Z,19.77
2019-01-04T03:25:48.980Z,12.67
2019-01-04T03:28:17.650Z,10.77
2019-01-04T03:30:48.338Z,10.37
2019-01-04T03:33:17.051Z,8.83
2019-01-04T03:35:45.842Z,9.33
2019-01-04T03:38:14.583Z,11.87
2019-01-04T03:40:43.232Z,10.53
2019-01-04T03:43:11.990Z,14.07
2019-01-04T03:45:42.555Z,17.30
2019-01-04T03:48:11.507Z,12.43
2019-01-04T03:50:41.548Z,11.20
2019-01-04T03:53:10.218Z,14.47
2019-01-04T03:55:38.918Z,18.10
2019-01-04T03:58:07.793Z,25.17
2019-01-04T04:00:36.555Z,15.77
2019-01-04T04:03:05.211Z,12.97
2019-01-04T04:05:34.976Z,14.83
2019-01-04T04:08:03.793Z,26.07
2019-01-04T04:10:32.594Z,15.85
2019-01-04T04:13:01.376Z,14.63
2019-01-04T04:15:30.364Z,13.63
2019-01-04T04:17:59.459Z,13.27
2019-01-04T04:20:28.163Z,14.87
2019-01-04T04:22:56.981Z,14.30
2019-01-04T04:25:25.645Z,12.57
2019-01-04T04:27:58.126Z,15.83
2019-01-04T04:30:26.806Z,23.77
2019-01-04T04:32:55.721Z,18.30
2019-01-04T04:35:24.991Z,23.57
2019-01-04T04:37:53.660Z,16.17
2019-01-04T04:40:22.544Z,23.50
2019-01-04T04:42:51.570Z,24.83
2019-01-04T04:45:20.464Z,22.83
2019-01-04T04:47:49.866Z,14.30
2019-01-04T04:50:18.599Z,20.77
2019-01-04T04:52:48.130Z,13.83
2019-01-04T04:55:17.069Z,25.20
2019-01-04T04:57:45.726Z,23.90
2019-01-04T05:00:17.549Z,18.20
2019-01-04T05:02:46.632Z,20.50
2019-01-04T05:05:15.298Z,17.73
2019-01-04T05:07:44.219Z,19.10
2019-01-04T05:10:13.330Z,17.20
2019-01-04T05:12:42.571Z,19.37
2019-01-04T05:15:11.371Z,20.47
2019-01-04T05:17:40.312Z,15.57
2019-01-04T05:20:09.186Z,17.27
2019-01-04T05:22:38.106Z,21.97
2019-01-04T05:25:07.739Z,19.40
2019-01-04T05:27:36.407Z,20.70
2019-01-04T05:30:05.282Z,25.17
2019-01-04T05:32:34.239Z,22.97
2019-01-04T05:35:02.925Z,23.83
2019-01-04T05:37:31.961Z,24.93
2019-01-04T05:40:11.135Z,14.37
2019-01-04T05:42:40.451Z,24.93
2019-01-04T05:45:09.194Z,20.70
2019-01-04T05:47:37.871Z,18.03
2019-01-04T05:50:07.020Z,19.50
2019-01-04T05:52:35.714Z,17.23
2019-01-04T05:55:04.879Z,20.87
2019-01-04T05:57:33.999Z,19.90
2019-01-04T06:00:03.090Z,12.10
2019-01-04T06:02:31.793Z,21.67
2019-01-04T06:05:00.758Z,21.70
2019-01-04T06:07:29.422Z,21.80
2019-01-04T06:09:58.131Z,15.87
2019-01-04T06:12:26.814Z,18.10
2019-01-04T06:14:55.467Z,20.87
2019-01-04T06:17:25.696Z,25.77
2019-01-04T06:19:54.721Z,24.90
2019-01-04T06:22:23.522Z,27.87
2019-01-04T06:24:52.374Z,20.77
2019-01-04T06:27:22.262Z,19.03
2019-01-04T06:29:51.194Z,13.23
2019-01-04T06:32:20.149Z,17.93
2019-01-04T06:34:48.803Z,22.33
2019-01-04T06:37:17.472Z,24.73
2019-01-04T06:39:46.378Z,26.43
2019-01-04T06:42:15.372Z,23.67
2019-01-04T06:44:44.114Z,17.87
2019-01-04T06:47:14.430Z,16.95
2019-01-04T06:49:43.382Z,15.70
2019-01-04T06:52:12.214Z,21.10
2019-01-04T06:55:37.010Z,22.67
2019-01-04T06:58:05.767Z,18.60
2019-01-04T07:00:34.623Z,13.87
2019-01-04T07:03:03.402Z,19.87
2019-01-04T07:05:32.080Z,17.20
2019-01-04T07:08:00.770Z,21.10
2019-01-04T07:10:29.700Z,22.10
2019-01-04T07:12:58.390Z,30.20
2019-01-04T07:15:27.642Z,16.93
2019-01-04T07:17:56.804Z,22.03
2019-01-04T07:20:26.126Z,20.80
2019-01-04T07:22:54.978Z,13.97
2019-01-04T07:25:23.971Z,13.90
2019-01-04T07:27:55.497Z,17.67
2019-01-04T07:30:24.339Z,16.17
2019-01-04T07:32:53.268Z,15.20
2019-01-04T07:35:30.039Z,24.47
2019-01-04T07:37:59.038Z,21.57
2019-01-04T07:40:27.788Z,18.60
2019-01-04T07:42:56.693Z,18.80
2019-01-04T07:45:25.942Z,16.77
2019-01-04T07:47:54.853Z,14.03
2019-01-04T07:50:23.784Z,10.23
2019-01-04T07:52:52.481Z,18.23
2019-01-04T07:55:21.394Z,15.30
2019-01-04T07:57:50.323Z,13.13
2019-01-04T08:00:20.193Z,18.53
2019-01-04T08:02:50.330Z,14.10
2019-01-04T08:05:26.328Z,14.90
2019-01-04T08:07:55.262Z,11.67
2019-01-04T08:10:24.346Z,12.70
2019-01-04T08:12:53.427Z,17.33
2019-01-04T08:15:22.274Z,13.63
2019-01-04T08:17:51.063Z,12.07
2019-01-04T08:20:19.991Z,14.53
2019-01-04T08:22:48.874Z,17.97
2019-01-04T08:25:17.790Z,15.03
2019-01-04T08:27:46.589Z,15.47
2019-01-04T08:30:16.787Z,15.33
2019-01-04T08:32:47.225Z,19.70
2019-01-04T08:35:16.169Z,15.00
2019-01-04T08:37:44.912Z,20.27
2019-01-04T08:40:14.649Z,13.97
2019-01-04T08:42:43.444Z,16.70
2019-01-04T08:45:13.361Z,19.20
2019-01-04T08:47:42.316Z,14.00
2019-01-04T08:50:12.641Z,10.20
2019-01-04T08:52:41.637Z,14.13
2019-01-04T08:55:29.825Z,15.97
2019-01-04T08:57:58.565Z,17.53
2019-01-04T09:00:27.659Z,11.93
2019-01-04T09:02:56.996Z,13.37
2019-01-04T09:05:25.782Z,20.93
2019-01-04T09:07:54.933Z,11.67
2019-01-04T09:10:23.835Z,12.13
2019-01-04T09:12:52.697Z,13.23
2019-01-04T09:15:21.384Z,11.03
2019-01-04T09:17:50.626Z,9.63
2019-01-04T09:20:20.877Z,13.17
2019-01-04T09:22:49.562Z,11.03
2019-01-04T09:25:18.619Z,10.63
2019-01-04T09:27:47.401Z,10.60
2019-01-04T09:30:16.214Z,12.43
2019-01-04T09:32:45.402Z,10.27
2019-01-04T09:35:14.420Z,15.87
2019-01-04T09:37:43.382Z,13.30
2019-01-04T09:40:12.585Z,10.47
2019-01-04T09:42:44.070Z,16.53
2019-01-04T09:45:12.838Z,12.43
2019-01-04T09:47:41.546Z,10.40
2019-01-04T09:50:10.809Z,8.90
2019-01-04T09:52:39.546Z,9.53
2019-01-04T09:55:08.674Z,7.63
2019-01-04T09:57:37.714Z,12.57
2019-01-04T10:00:10.081Z,11.93
2019-01-04T10:02:38.858Z,9.03
2019-01-04T10:05:07.951Z,12.83
2019-01-04T10:07:36.852Z,9.67
2019-01-04T10:10:07.230Z,10.70
2019-01-04T10:12:35.903Z,14.20
2019-01-04T10:15:05.203Z,11.12
2019-01-04T10:17:33.971Z,10.50
2019-01-04T10:20:02.933Z,14.80
2019-01-04T10:22:31.690Z,9.60
2019-01-04T10:25:00.728Z,8.57
2019-01-04T10:27:29.411Z,19.30
2019-01-04T10:29:58.432Z,13.30
2019-01-04T10:32:27.385Z,12.50
2019-01-04T10:34:56.058Z,13.93
2019-01-04T10:37:24.971Z,14.90
2019-01-04T10:39:54.032Z,12.00
2019-01-04T10:42:22.698Z,10.90
2019-01-04T10:44:51.630Z,7.23
2019-01-04T10:47:20.394Z,8.00
2019-01-04T10:49:49.354Z,17.03
2019-01-04T10:52:18.364Z,11.50
2019-01-04T10:54:47.225Z,9.50
2019-01-04T10:57:16.191Z,11.27
2019-01-04T10:59:45.048Z,9.97
2019-01-04T11:02:13.771Z,11.37
2019-01-04T11:04:42.496Z,9.57
2019-01-04T11:07:11.254Z,8.73
2019-01-04T11:09:39.968Z,10.57
2019-01-04T11:12:08.698Z,6.30
2019-01-04T11:14:37.434Z,8.53
2019-01-04T11:17:06.234Z,9.73
2019-01-04T11:19:35.278Z,8.97
2019-01-04T11:22:39.885Z,7.80
2019-01-04T11:25:54.704Z,10.50
2019-01-04T11:28:38.575Z,11.43
2019-01-04T11:31:14.174Z,6.83
2019-01-04T11:34:23.422Z,8.43
2019-01-04T11:37:17.638Z,8.30
2019-01-04T11:40:21.294Z,6.78
2019-01-04T11:43:22.904Z,6.97
2019-01-04T11:46:05.515Z,7.47
2019-01-04T11:49:06.475Z,7.30
2019-01-04T11:51:57.185Z,8.60
2019-01-04T11:54:28.539Z,8.13
2019-01-04T11:56:57.311Z,8.03
2019-01-04T11:59:26.056Z,7.07
2019-01-04T12:01:54.987Z,8.47
2019-01-04T12:04:23.642Z,9.17
2019-01-04T12:06:52.945Z,9.23
2019-01-04T12:09:21.616Z,8.57
2019-01-04T12:11:50.298Z,6.23
2019-01-04T12:14:19.340Z,8.13
2019-01-04T12:16:48.281Z,6.83
2019-01-04T12:19:17.019Z,5.80
2019-01-04T12:21:46.183Z,7.27
2019-01-04T12:24:15.106Z,5.90
2019-01-04T12:26:43.827Z,5.67
2019-01-04T12:29:12.604Z,8.20
2019-01-04T12:31:41.363Z,7.67
2019-01-04T12:34:10.125Z,9.60
2019-01-04T12:36:39.630Z,6.73
2019-01-04T12:39:08.746Z,5.07
2019-01-04T12:41:37.782Z,5.57
2019-01-04T12:44:06.517Z,5.70
2019-01-04T12:46:35.427Z,5.40
2019-01-04T12:49:04.134Z,6.67
2019-01-04T12:51:32.993Z,6.57
2019-01-04T12:54:01.762Z,4.77
2019-01-04T12:56:30.679Z,7.37
2019-01-04T12:58:59.422Z,6.50
2019-01-04T13:01:28.136Z,7.17
2019-01-04T13:03:56.840Z,7.23
2019-01-04T13:06:25.622Z,11.10
2019-01-04T13:08:54.373Z,3.73
2019-01-04T13:11:23.120Z,5.37
2019-01-04T13:13:52.114Z,7.30
2019-01-04T13:16:20.956Z,3.50
2019-01-04T13:18:49.843Z,10.20
2019-01-04T13:21:18.644Z,3.92
2019-01-04T13:23:47.317Z,8.47
2019-01-04T13:26:16.393Z,3.60
2019-01-04T13:28:46.531Z,5.87
2019-01-04T13:31:15.544Z,4.30
2019-01-04T13:33:44.451Z,7.13
2019-01-04T13:36:13.162Z,8.30
2019-01-04T13:38:41.836Z,5.47
2019-01-04T13:41:10.591Z,4.17
2019-01-04T13:43:39.835Z,5.43
2019-01-04T13:46:10.394Z,4.80
2019-01-04T13:48:39.097Z,5.17
2019-01-04T13:51:07.918Z,3.70
2019-01-04T13:53:40.331Z,5.20
2019-01-04T13:56:09.311Z,4.53
2019-01-04T13:58:38.148Z,3.37
2019-01-04T14:01:09.056Z,3.97
2019-01-04T14:03:38.116Z,4.80
2019-01-04T14:06:07.120Z,3.03
2019-01-04T14:08:35.813Z,4.03
2019-01-04T14:11:04.624Z,5.13
2019-01-04T14:13:33.798Z,4.10
2019-01-04T14:16:05.969Z,3.13
2019-01-04T14:18:35.031Z,3.67
2019-01-04T14:21:03.870Z,2.47
2019-01-04T14:23:32.913Z,4.07
2019-01-04T14:26:02.044Z,2.90
2019-01-04T14:28:30.966Z,3.83
2019-01-04T14:30:59.699Z,3.50
2019-01-04T14:33:28.553Z,2.80
2019-01-04T14:35:57.821Z,4.23
2019-01-04T14:38:26.901Z,4.77
2019-01-04T14:40:56.265Z,4.67
2019-01-04T14:43:25.700Z,6.50
2019-01-04T14:45:55.438Z,3.37
2019-01-04T14:48:24.691Z,2.77
2019-01-04T14:50:55.384Z,3.83
2019-01-04T14:53:24.351Z,3.50
2019-01-04T14:55:54.926Z,3.63
2019-01-04T14:58:23.734Z,3.30
2019-01-04T15:00:55.501Z,2.97
2019-01-04T15:03:24.224Z,2.40
2019-01-04T15:05:53.673Z,3.13
2019-01-04T15:08:22.486Z,2.73
2019-01-04T15:10:51.432Z,6.27
2019-01-04T15:13:20.461Z,8.27
2019-01-04T15:15:51.947Z,3.20
2019-01-04T15:18:20.710Z,2.83
2019-01-04T15:20:50.688Z,5.60
2019-01-04T15:23:19.491Z,3.47
2019-01-04T15:25:48.390Z,3.17
2019-01-04T15:28:17.301Z,3.37
2019-01-04T15:30:46.143Z,5.17
2019-01-04T15:33:14.997Z,5.73
2019-01-04T15:35:44.432Z,11.93
2019-01-04T15:38:13.151Z,3.63
2019-01-04T15:40:42.093Z,7.23
2019-01-04T15:43:10.837Z,4.40
2019-01-04T15:45:39.518Z,4.20
2019-01-04T15:48:08.343Z,3.17
2019-01-04T15:50:37.161Z,5.43
2019-01-04T15:53:05.948Z,5.30
2019-01-04T15:55:34.747Z,5.97
2019-01-04T15:58:03.510Z,4.57
2019-01-04T16:00:32.191Z,5.63
2019-01-04T16:03:01.167Z,4.77
2019-01-04T16:05:30.229Z,5.20
2019-01-04T16:07:58.909Z,9.90
2019-01-04T16:10:28.154Z,9.43
2019-01-04T16:12:57.098Z,6.57
2019-01-04T16:15:25.777Z,6.73
2019-01-04T16:17:54.448Z,6.63
2019-01-04T16:20:23.518Z,14.43
2019-01-04T16:22:52.297Z,7.80
2019-01-04T16:25:21.770Z,10.47
2019-01-04T16:27:50.637Z,8.37
2019-01-04T16:30:19.323Z,10.40
2019-01-04T16:32:48.250Z,8.60
2019-01-04T16:35:17.419Z,9.60
2019-01-04T16:37:46.394Z,8.47
2019-01-04T16:40:15.422Z,11.27
2019-01-04T16:42:44.351Z,10.93
2019-01-04T16:45:13.021Z,9.17
2019-01-04T16:47:41.987Z,7.67
2019-01-04T16:50:11.051Z,10.90
2019-01-04T16:52:40.023Z,9.50
2019-01-04T16:55:09.346Z,8.97
2019-01-04T16:57:38.267Z,9.00
2019-01-04T17:00:08.508Z,5.53
2019-01-04T17:02:37.260Z,12.13
2019-01-04T17:05:06.445Z,11.43
2019-01-04T17:07:35.278Z,12.47
2019-01-04T17:10:04.270Z,13.60
2019-01-04T17:12:33.302Z,9.33
2019-01-04T17:15:02.235Z,7.83
2019-01-04T17:17:32.095Z,11.77
2019-01-04T17:20:01.274Z,10.40
2019-01-04T17:22:30.059Z,10.87
2019-01-04T17:24:59.085Z,15.43
2019-01-04T17:27:28.049Z,8.00
2019-01-04T17:29:56.823Z,11.27
2019-01-04T17:32:25.515Z,10.77
2019-01-04T17:34:54.325Z,11.57
2019-01-04T17:37:23.128Z,11.77
2019-01-04T17:39:51.953Z,10.80
2019-01-04T17:42:21.043Z,6.50
2019-01-04T17:44:49.973Z,9.07
2019-01-04T17:47:18.730Z,17.50
2019-01-04T17:49:47.853Z,21.63
2019-01-04T17:52:17.373Z,9.23
2019-01-04T17:54:46.519Z,8.53
2019-01-04T17:57:15.734Z,12.40
2019-01-04T17:59:44.591Z,11.13
2019-01-04T18:02:13.699Z,9.30
2019-01-04T18:04:42.796Z,8.33
2019-01-04T18:07:11.676Z,8.40
2019-01-04T18:09:40.403Z,13.87
2019-01-04T18:12:09.335Z,12.90
2019-01-04T18:14:38.270Z,16.57
2019-01-04T18:17:07.258Z,12.80
2019-01-04T18:19:36.331Z,6.23
2019-01-04T18:22:05.231Z,13.57
2019-01-04T18:24:34.202Z,10.63
2019-01-04T18:27:03.175Z,8.80
2019-01-04T18:29:31.915Z,10.47
2019-01-04T18:32:00.678Z,7.13
2019-01-04T18:34:29.387Z,9.63
2019-01-04T18:36:58.551Z,7.63
2019-01-04T18:39:27.612Z,10.70
2019-01-04T18:41:56.378Z,10.37
2019-01-04T18:44:25.321Z,8.13
2019-01-04T18:46:54.765Z,17.10
2019-01-04T18:49:23.728Z,4.93
2019-01-04T18:51:52.729Z,8.67
2019-01-04T18:54:22.489Z,11.83
2019-01-04T18:56:51.536Z,7.07
2019-01-04T18:59:20.482Z,11.77
2019-01-04T19:01:49.258Z,10.23
2019-01-04T19:04:18.226Z,9.77
2019-01-04T19:06:46.937Z,16.63
2019-01-04T19:09:15.683Z,12.93
2019-01-04T19:11:46.198Z,11.20
2019-01-04T19:14:14.889Z,10.37
2019-01-04T19:16:43.596Z,18.67
2019-01-04T19:19:12.638Z,10.20
2019-01-04T19:21:41.376Z,12.87
2019-01-04T19:24:10.492Z,8.47
2019-01-04T19:26:39.273Z,4.37
2019-01-04T19:29:08.259Z,9.77
2019-01-04T19:31:37.324Z,8.40
2019-01-04T19:34:06.622Z,12.37
2019-01-04T19:36:35.490Z,14.63
2019-01-04T19:39:06.203Z,7.97
2019-01-04T19:41:34.986Z,6.27
2019-01-04T19:44:04.091Z,12.83
2019-01-04T19:46:32.870Z,13.27
2019-01-04T19:49:01.658Z,7.50
2019-01-04T19:51:30.584Z,10.50
2019-01-04T19:53:59.518Z,14.17
2019-01-04T19:56:29.379Z,16.23
2019-01-04T19:58:58.176Z,9.27
2019-01-04T20:01:26.864Z,13.73
2019-01-04T20:03:55.710Z,14.20
2019-01-04T20:07:02.678Z,10.40
2019-01-04T20:10:55.084Z,8.40
2019-01-04T20:14:27.576Z,9.50
2019-01-04T20:17:28.191Z,9.80
2019-01-04T20:20:14.886Z,13.90
2019-01-04T20:23:06.217Z,21.33
2019-01-04T20:25:59.087Z,8.70
2019-01-04T20:28:50.748Z,14.40
2019-01-04T20:31:41.681Z,11.07
2019-01-04T20:34:28.322Z,12.20
2019-01-04T20:37:14.816Z,17.23
2019-01-04T20:40:14.669Z,6.27
2019-01-04T20:43:02.723Z,10.00
2019-01-04T20:45:40.284Z,12.90
2019-01-04T20:48:46.330Z,11.73
2019-01-04T20:51:40.869Z,20.40
2019-01-04T20:54:27.414Z,12.23
2019-01-04T20:57:14.198Z,11.53
2019-01-04T21:00:00.759Z,9.97
2019-01-04T21:02:43.450Z,13.45
2019-01-04T21:05:30.106Z,11.63
2019-01-04T21:08:22.249Z,10.67
2019-01-04T21:11:16.623Z,15.20
2019-01-04T21:14:02.964Z,13.50
2019-01-04T21:16:49.334Z,11.27
2019-01-04T21:19:30.268Z,10.07
2019-01-04T21:22:36.502Z,10.43
2019-01-04T21:25:23.458Z,18.67
2019-01-04T21:28:06.638Z,11.80
2019-01-04T21:30:54.488Z,12.63
2019-01-04T21:33:40.849Z,9.93
2019-01-04T21:36:24.329Z,7.93
2019-01-04T21:39:10.792Z,10.93
2019-01-04T21:41:57.336Z,12.77
2019-01-04T21:44:38.270Z,10.13
2019-01-04T21:47:38.123Z,13.03
2019-01-04T21:50:25.939Z,11.40
2019-01-04T21:53:09.928Z,15.03
2019-01-04T21:55:56.494Z,14.13
2019-01-04T21:58:43.292Z,7.73
2019-01-04T22:01:35.100Z,18.67
2019-01-04T22:04:26.098Z,20.27
2019-01-04T22:07:12.705Z,13.47
2019-01-04T22:09:56.482Z,9.00
2019-01-04T22:12:43.159Z,13.97
2019-01-04T22:15:29.821Z,14.60
2019-01-04T22:18:23.758Z,14.17
2019-01-04T22:21:10.638Z,11.30
2019-01-04T22:24:04.569Z,10.10
2019-01-04T22:27:04.717Z,8.33
2019-01-04T22:29:58.928Z,14.00
2019-01-04T22:32:42.476Z,15.97
2019-01-04T22:35:22.120Z,12.03
2019-01-04T22:38:08.350Z,5.73
2019-01-04T22:41:05.619Z,8.33
2019-01-04T22:43:48.940Z,5.23
2019-01-04T22:46:48.939Z,11.80
2019-01-04T22:49:35.743Z,8.50
2019-01-04T22:52:40.119Z,12.00
2019-01-04T22:55:27.154Z,6.73
2019-01-04T22:58:17.605Z,5.40
2019-01-04T23:01:01.267Z,11.55
2019-01-04T23:03:48.175Z,6.63
2019-01-04T23:06:36.202Z,6.83
2019-01-04T23:09:35.489Z,5.50
2019-01-04T23:12:29.836Z,8.57
2019-01-04T23:15:26.921Z,7.97
2019-01-04T23:18:13.219Z,5.27
2019-01-04T23:21:12.266Z,5.30
2019-01-04T23:24:01.113Z,5.73
2019-01-04T23:26:54.702Z,4.63
2019-01-04T23:29:52.391Z,5.70
2019-01-04T23:32:38.898Z,6.33
2019-01-04T23:35:31.253Z,7.23
2019-01-04T23:38:18.093Z,5.00
2019-01-04T23:41:04.124Z,5.03
2019-01-04T23:44:00.747Z,6.13
2019-01-04T23:47:00.170Z,7.77
2019-01-04T23:49:51.183Z,5.03
2019-01-04T23:52:46.491Z,5.60
2019-01-04T23:55:40.555Z,6.70
2019-01-04T23:58:38.729Z,5.93
